Time;durP1;ratioP1;P1;durP2;ratioP2;P2;SDS_P1;SDS_P2;PMS_P1;PMS_P2;Temp;Humidity;BMP_temperature;BMP_pressure;BME280_temperature;BME280_humidity;BME280_pressure;Samples;Min_cycle;Max_cycle;Signal;HPM_P1;HPM_P2
2021/08/04 00:00:06;;;;;;;9.27;8.27;;;;;;;13.15;96.22;100621.34;695781;28;1817;-53
2021/08/04 00:00:31;;;;;;;10.25;8.27;;;;;;;13.15;96.14;100625.75;693475;28;5056;-53
2021/08/04 00:00:52;;;;;;;10.40;8.20;;;;;;;13.15;96.19;100625.75;693791;28;4498;-53
2021/08/04 00:01:12;;;;;;;9.05;8.15;;;;;;;13.13;96.26;100628.41;694168;28;1491;-51
2021/08/04 00:01:32;;;;;;;8.80;7.87;;;;;;;13.14;95.95;100624.00;693858;28;1397;-49
2021/08/04 00:01:53;;;;;;;8.47;7.57;;;;;;;13.14;95.81;100624.91;694813;28;1699;-52
2021/08/04 00:02:13;;;;;;;8.50;7.55;;;;;;;13.14;95.33;100630.16;693423;28;1728;-60
2021/08/04 00:02:33;;;;;;;9.10;7.30;;;;;;;13.15;94.98;100623.97;694276;28;1374;-51
2021/08/04 00:02:54;;;;;;;8.90;7.28;;;;;;;13.16;95.02;100625.72;694743;28;1601;-51
2021/08/04 00:03:14;;;;;;;8.50;7.17;;;;;;;13.18;95.19;100620.44;692717;28;4747;-51
2021/08/04 00:03:37;;;;;;;7.73;6.43;;;;;;;13.20;94.81;100627.41;693791;28;4355;-52
2021/08/04 00:03:58;;;;;;;8.15;6.30;;;;;;;13.22;94.58;100628.28;693932;28;1936;-53
2021/08/04 00:04:18;;;;;;;7.37;6.57;;;;;;;13.23;94.93;100635.22;693330;28;4141;-50
2021/08/04 00:04:38;;;;;;;7.90;7.10;;;;;;;13.22;95.22;100623.03;693293;28;1763;-50
2021/08/04 00:04:59;;;;;;;8.60;7.70;;;;;;;13.20;95.14;100627.41;694405;28;1636;-49
2021/08/04 00:05:19;;;;;;;8.73;7.83;;;;;;;13.19;95.41;100628.28;694266;28;1511;-54
2021/08/04 00:05:40;;;;;;;9.90;8.05;;;;;;;13.18;95.95;100626.59;694593;28;1719;-53
2021/08/04 00:06:00;;;;;;;11.03;8.30;;;;;;;13.16;96.19;100625.72;694970;28;1540;-49
2021/08/04 00:06:20;;;;;;;10.13;8.10;;;;;;;13.16;96.16;100632.75;693781;28;4615;-52
2021/08/04 00:06:41;;;;;;;9.80;8.20;;;;;;;13.14;96.41;100627.53;693306;28;1544;-53
2021/08/04 00:07:01;;;;;;;11.30;8.23;;;;;;;13.10;96.35;100624.06;694032;28;1440;-52
2021/08/04 00:07:22;;;;;;;10.33;8.23;;;;;;;13.10;96.30;100628.47;693665;28;1623;-48
2021/08/04 00:07:42;;;;;;;10.10;8.20;;;;;;;13.08;96.44;100624.97;693773;28;4497;-49
2021/08/04 00:08:04;;;;;;;11.87;8.50;;;;;;;13.08;96.26;100627.59;693424;28;1703;-50
2021/08/04 00:08:24;;;;;;;10.80;8.32;;;;;;;13.07;96.44;100631.13;693913;28;3318;-49
2021/08/04 00:08:44;;;;;;;9.77;8.60;;;;;;;13.07;96.27;100623.25;695648;28;1673;-51
2021/08/04 00:09:05;;;;;;;10.10;8.60;;;;;;;13.07;96.24;100632.00;696793;28;1712;-51
2021/08/04 00:09:25;;;;;;;9.32;8.32;;;;;;;13.06;96.41;100627.63;696359;28;5929;-50
2021/08/04 00:09:46;;;;;;;10.40;8.67;;;;;;;13.05;96.69;100623.28;696042;28;1505;-49
2021/08/04 00:10:06;;;;;;;12.88;8.93;;;;;;;13.04;96.66;100626.81;697054;28;1666;-50
2021/08/04 00:10:27;;;;;;;11.85;8.55;;;;;;;13.04;96.44;100625.91;697128;28;1439;-51
2021/08/04 00:10:47;;;;;;;8.77;7.70;;;;;;;13.05;96.69;100619.78;695751;28;3558;-53
2021/08/04 00:11:08;;;;;;;8.40;7.37;;;;;;;13.06;96.29;100625.00;695608;28;2669;-51
2021/08/04 00:11:28;;;;;;;9.33;7.70;;;;;;;13.06;96.35;100626.78;696691;28;1750;-49
2021/08/04 00:11:48;;;;;;;10.33;7.80;;;;;;;13.06;96.47;100622.38;698066;28;2185;-50
2021/08/04 00:12:10;;;;;;;10.07;8.05;;;;;;;13.04;96.44;100623.28;694151;28;4461;-51
2021/08/04 00:12:30;;;;;;;8.68;7.78;;;;;;;13.06;96.51;100626.78;693991;28;1736;-52
2021/08/04 00:12:50;;;;;;;8.75;7.65;;;;;;;13.06;96.12;100621.53;693656;28;1504;-49
2021/08/04 00:13:11;;;;;;;8.63;7.60;;;;;;;13.06;95.99;100616.28;694828;28;1918;-51
2021/08/04 00:13:32;;;;;;;9.27;7.10;;;;;;;13.07;96.16;100623.25;694488;28;1513;-49
2021/08/04 00:13:52;;;;;;;7.97;6.97;;;;;;;13.07;96.06;100620.63;694129;28;2177;-51
2021/08/04 00:14:13;;;;;;;8.03;7.10;;;;;;;13.07;95.44;100623.25;697854;28;1709;-51
2021/08/04 00:14:33;;;;;;;8.05;6.63;;;;;;;13.08;95.30;100620.63;696578;28;3881;-49
2021/08/04 00:14:54;;;;;;;7.20;6.50;;;;;;;13.12;94.96;100616.16;696237;28;1719;-50
2021/08/04 00:15:16;;;;;;;7.80;7.00;;;;;;;13.14;95.09;100618.75;693203;28;5569;-49
2021/08/04 00:15:37;;;;;;;8.07;6.90;;;;;;;13.15;94.74;100621.34;694397;28;1515;-51
2021/08/04 00:15:57;;;;;;;7.70;6.90;;;;;;;13.15;94.50;100626.59;694267;28;1472;-51
2021/08/04 00:16:21;;;;;;;7.30;6.60;;;;;;;13.20;93.86;100624.78;696062;28;1427;-52
2021/08/04 00:16:41;;;;;;;6.93;6.20;;;;;;;13.23;93.32;100619.47;694002;28;1652;-50
2021/08/04 00:17:02;;;;;;;7.43;6.00;;;;;;;13.25;93.63;100619.44;694702;28;1740;-52
2021/08/04 00:17:23;;;;;;;8.40;6.40;;;;;;;13.25;93.75;100625.59;696977;28;1081;-49
2021/08/04 00:17:44;;;;;;;7.73;6.50;;;;;;;13.24;94.15;100621.22;697255;28;3060;-49
2021/08/04 00:18:04;;;;;;;8.25;7.03;;;;;;;13.24;94.57;100620.38;696852;28;1585;-52
2021/08/04 00:18:25;;;;;;;9.05;6.88;;;;;;;13.23;94.41;100626.50;695564;28;4523;-52
2021/08/04 00:18:45;;;;;;;8.63;6.80;;;;;;;13.20;94.91;100624.78;696561;28;1617;-51
2021/08/04 00:19:05;;;;;;;8.27;7.40;;;;;;;13.19;94.50;100615.16;696329;28;4154;-50
2021/08/04 00:19:26;;;;;;;7.50;6.70;;;;;;;13.20;94.27;100619.53;696928;28;1604;-50
2021/08/04 00:19:46;;;;;;;7.30;6.23;;;;;;;13.21;93.85;100621.28;696738;28;1419;-52
2021/08/04 00:20:09;;;;;;;8.48;6.93;;;;;;;13.19;94.34;100623.03;696920;28;1436;-49
2021/08/04 00:20:29;;;;;;;7.80;7.00;;;;;;;13.18;94.29;100621.34;697473;28;1340;-50
2021/08/04 00:20:50;;;;;;;8.00;7.05;;;;;;;13.15;93.91;100621.34;697449;28;1476;-50
2021/08/04 00:21:10;;;;;;;8.37;6.70;;;;;;;13.19;93.88;100617.78;695882;28;4645;-49
2021/08/04 00:21:31;;;;;;;9.87;6.80;;;;;;;13.19;94.18;100617.78;695647;28;1396;-52
2021/08/04 00:21:51;;;;;;;11.85;7.00;;;;;;;13.17;94.86;100622.22;697258;28;937;-49
2021/08/04 00:22:11;;;;;;;9.90;6.83;;;;;;;13.15;95.01;100621.34;696422;28;1609;-51
2021/08/04 00:22:33;;;;;;;8.07;7.00;;;;;;;13.13;94.78;100617.06;696577;28;4402;-52
2021/08/04 00:22:53;;;;;;;8.60;6.82;;;;;;;13.12;94.56;100618.78;696712;28;1518;-52
2021/08/04 00:23:13;;;;;;;10.53;7.37;;;;;;;13.12;94.91;100616.16;696550;28;4281;-51
2021/08/04 00:23:34;;;;;;;9.98;7.28;;;;;;;13.11;95.17;100619.69;697782;28;1322;-50
2021/08/04 00:23:55;;;;;;;9.20;7.07;;;;;;;13.09;95.10;100624.09;697030;28;1708;-49
2021/08/04 00:24:15;;;;;;;8.68;7.10;;;;;;;13.03;94.80;100616.31;696985;28;5497;-52
2021/08/04 00:24:36;;;;;;;9.27;7.00;;;;;;;12.99;95.08;100625.13;697209;28;1941;-53
2021/08/04 00:24:56;;;;;;;8.33;7.27;;;;;;;12.99;95.54;100619.88;695548;28;1757;-49
2021/08/04 00:25:16;;;;;;;9.05;7.28;;;;;;;12.95;95.03;100617.28;695262;28;1482;-51
2021/08/04 00:25:37;;;;;;;7.93;7.10;;;;;;;12.93;95.15;100619.09;697222;28;1220;-53
2021/08/04 00:25:57;;;;;;;8.63;7.37;;;;;;;12.94;95.28;100612.97;697065;28;1484;-51
2021/08/04 00:26:18;;;;;;;10.52;7.07;;;;;;;12.95;94.99;100619.91;694380;28;3872;-52
2021/08/04 00:26:38;;;;;;;11.25;7.43;;;;;;;12.95;95.67;100619.91;693927;28;1764;-49
2021/08/04 00:26:59;;;;;;;10.07;7.23;;;;;;;12.94;95.70;100614.69;693907;28;1732;-53
2021/08/04 00:27:19;;;;;;;8.17;6.50;;;;;;;12.98;95.34;100615.53;693783;28;4464;-53
2021/08/04 00:27:39;;;;;;;8.57;6.70;;;;;;;13.01;94.89;100618.09;695071;28;1468;-50
2021/08/04 00:28:00;;;;;;;7.87;6.53;;;;;;;13.01;94.76;100618.97;694570;28;1557;-51
2021/08/04 00:28:20;;;;;;;7.28;6.32;;;;;;;13.02;94.98;100609.34;696968;28;1426;-52
2021/08/04 00:28:40;;;;;;;7.07;6.30;;;;;;;13.02;94.65;100614.59;695985;28;1645;-51
2021/08/04 00:29:01;;;;;;;7.70;6.50;;;;;;;13.03;94.73;100616.31;697500;28;1432;-51
2021/08/04 00:29:21;;;;;;;8.47;6.83;;;;;;;13.01;94.58;100612.84;696718;28;1785;-52
2021/08/04 00:29:42;;;;;;;7.80;7.00;;;;;;;12.99;94.76;100619.88;696087;28;1620;-50
2021/08/04 00:30:04;;;;;;;8.33;7.50;;;;;;;12.96;94.92;100612.94;693983;28;3903;-52
2021/08/04 00:30:24;;;;;;;9.38;7.00;;;;;;;12.95;94.63;100613.81;691024;28;4439;-53
2021/08/04 00:30:45;;;;;;;8.10;7.15;;;;;;;12.93;94.81;100613.84;689153;28;1476;-53
2021/08/04 00:31:05;;;;;;;8.83;7.10;;;;;;;12.95;94.96;100613.81;685564;28;1634;-49
2021/08/04 00:31:26;;;;;;;8.10;6.85;;;;;;;12.95;94.86;100614.66;682317;28;1475;-54
2021/08/04 00:31:46;;;;;;;8.50;6.77;;;;;;;12.95;95.09;100613.81;683452;28;1657;-57
2021/08/04 00:32:07;;;;;;;9.25;7.15;;;;;;;12.94;95.01;100612.97;685458;28;1637;-51
2021/08/04 00:32:27;;;;;;;7.17;6.43;;;;;;;12.97;94.48;100613.78;686510;28;3418;-52
2021/08/04 00:32:50;;;;;;;7.72;6.63;;;;;;;12.95;94.65;100609.44;685218;28;1624;-50
2021/08/04 00:33:10;;;;;;;8.70;6.70;;;;;;;12.94;94.69;100609.44;685150;28;4550;-50
2021/08/04 00:33:31;;;;;;;7.80;6.70;;;;;;;12.93;94.61;100605.09;687723;28;1607;-53
2021/08/04 00:33:51;;;;;;;8.27;6.43;;;;;;;12.93;94.56;100613.84;692529;28;4585;-50
2021/08/04 00:34:12;;;;;;;7.90;6.37;;;;;;;12.91;94.77;100613.00;689263;28;1232;-49
2021/08/04 00:34:33;;;;;;;7.90;6.72;;;;;;;12.91;94.89;100610.38;689268;28;1676;-53
2021/08/04 00:34:54;;;;;;;7.75;6.57;;;;;;;12.92;94.66;100612.09;689831;28;1271;-52
2021/08/04 00:35:14;;;;;;;7.90;6.50;;;;;;;12.92;94.77;100606.84;689226;28;1684;-52
2021/08/04 00:35:35;;;;;;;7.57;6.40;;;;;;;12.95;94.50;100611.19;687212;28;1396;-49
2021/08/04 00:35:55;;;;;;;7.40;6.45;;;;;;;12.95;94.10;100621.69;686691;28;3051;-50
2021/08/04 00:36:16;;;;;;;7.20;6.27;;;;;;;12.94;94.02;100609.44;683782;28;4451;-50
2021/08/04 00:36:37;;;;;;;7.50;6.13;;;;;;;12.94;94.00;100612.06;684656;28;4110;-50
2021/08/04 00:36:59;;;;;;;7.90;6.30;;;;;;;12.94;94.07;100614.69;687617;28;2316;-51
2021/08/04 00:37:20;;;;;;;8.25;6.70;;;;;;;12.91;94.30;100613.00;690025;28;1277;-49
2021/08/04 00:37:40;;;;;;;8.43;6.63;;;;;;;12.90;94.23;100611.28;690643;28;1691;-49
2021/08/04 00:38:09;;;;;;;7.72;6.47;;;;;;;12.85;95.04;100613.09;690532;28;1368;-49
2021/08/04 00:38:29;;;;;;;7.82;6.82;;;;;;;12.80;95.04;100608.81;692995;28;1639;-49
2021/08/04 00:38:50;;;;;;;8.10;7.00;;;;;;;12.77;95.33;100612.34;692180;28;3392;-49
2021/08/04 00:39:10;;;;;;;8.60;6.78;;;;;;;12.75;95.72;100611.47;691813;28;4508;-50
2021/08/04 00:39:31;;;;;;;8.70;7.10;;;;;;;12.74;96.04;100615.00;693529;28;1948;-51
2021/08/04 00:39:52;;;;;;;8.68;7.40;;;;;;;12.75;95.91;100611.47;695468;28;1538;-52
2021/08/04 00:40:13;;;;;;;8.80;7.25;;;;;;;12.74;95.72;100615.00;692005;28;1396;-49
2021/08/04 00:40:33;;;;;;;8.10;6.80;;;;;;;12.73;95.75;100610.66;688995;28;1612;-50
2021/08/04 00:40:54;;;;;;;8.63;7.07;;;;;;;12.73;95.80;100606.25;687128;28;1556;-53
2021/08/04 00:41:15;;;;;;;8.88;7.03;;;;;;;12.74;95.86;100613.25;686484;28;1909;-50
2021/08/04 00:41:40;;;;;;;8.73;7.10;;;;;;;12.74;95.78;100615.88;684663;28;1969;-51
2021/08/04 00:42:00;;;;;;;7.60;6.80;;;;;;;12.75;95.68;100614.09;685643;28;1939;-50
2021/08/04 00:42:23;;;;;;;7.95;6.80;;;;;;;12.75;95.77;100612.38;689378;28;4483;-50
2021/08/04 00:42:44;;;;;;;9.63;7.25;;;;;;;12.73;95.96;100613.28;687716;28;3856;-50
2021/08/04 00:43:06;;;;;;;9.63;7.25;;;;;;;12.74;95.59;100620.25;686250;28;1767;-51
2021/08/04 00:43:26;;;;;;;7.65;6.82;;;;;;;12.76;95.63;100615.84;687641;28;4593;-50
2021/08/04 00:43:47;;;;;;;7.23;6.47;;;;;;;12.79;95.43;100613.16;687827;28;1578;-52
2021/08/04 00:44:08;;;;;;;8.23;6.57;;;;;;;12.80;95.24;100616.69;688818;28;1678;-50
2021/08/04 00:44:28;;;;;;;7.97;6.68;;;;;;;12.79;95.47;100613.16;690698;28;1838;-50
2021/08/04 00:44:49;;;;;;;7.78;6.90;;;;;;;12.78;95.51;100621.94;690024;28;1636;-49
2021/08/04 00:45:10;;;;;;;7.80;6.73;;;;;;;12.77;95.66;100612.34;691379;28;4512;-50
2021/08/04 00:45:31;;;;;;;8.18;6.82;;;;;;;12.76;95.35;100618.47;692513;28;1407;-54
2021/08/04 00:45:51;;;;;;;7.43;6.40;;;;;;;12.76;95.23;100615.84;689572;28;1520;-52
2021/08/04 00:46:14;;;;;;;7.95;6.40;;;;;;;12.77;95.28;100613.19;689025;28;1346;-50
2021/08/04 00:46:43;;;;;;;7.60;6.45;;;;;;;12.79;94.91;100613.16;686171;28;3775;-52
2021/08/04 00:47:05;;;;;;;8.95;6.35;;;;;;;12.77;94.84;100612.34;688027;28;1855;-49
2021/08/04 00:47:26;;;;;;;8.25;6.63;;;;;;;12.76;95.00;100608.81;686369;28;1804;-50
2021/08/04 00:47:47;;;;;;;8.38;6.55;;;;;;;12.77;95.13;100612.34;684054;28;1711;-50
2021/08/04 00:48:07;;;;;;;8.05;7.10;;;;;;;12.77;95.12;100613.19;685750;28;1802;-52
2021/08/04 00:48:28;;;;;;;8.07;6.80;;;;;;;12.77;95.04;100609.72;688242;28;4435;-50
2021/08/04 00:48:49;;;;;;;7.63;6.80;;;;;;;12.74;95.17;100609.78;687272;28;2262;-49
2021/08/04 00:49:11;;;;;;;8.50;6.72;;;;;;;12.72;95.52;100606.28;683720;28;1622;-50
2021/08/04 00:49:33;;;;;;;9.07;7.18;;;;;;;12.69;95.77;100617.69;685251;28;1601;-49
2021/08/04 00:49:54;;;;;;;8.57;7.40;;;;;;;12.65;95.64;100615.13;687161;28;1587;-51
2021/08/04 00:50:14;;;;;;;8.90;7.23;;;;;;;12.60;96.08;100605.56;686411;28;4221;-51
2021/08/04 00:50:36;;;;;;;8.30;7.30;;;;;;;12.60;96.07;100610.81;687143;28;1966;-50
2021/08/04 00:50:56;;;;;;;10.30;7.72;;;;;;;12.59;96.05;100606.47;685924;28;3867;-49
2021/08/04 00:51:17;;;;;;;10.38;7.72;;;;;;;12.61;95.39;100606.44;686876;28;4361;-49
2021/08/04 00:51:38;;;;;;;10.00;7.20;;;;;;;12.63;95.56;100607.28;687712;28;1848;-50
2021/08/04 00:51:58;;;;;;;9.50;7.30;;;;;;;12.64;95.53;100610.78;684637;28;1571;-50
2021/08/04 00:52:19;;;;;;;9.25;6.95;;;;;;;12.65;95.52;100605.50;679741;28;1698;-50
2021/08/04 00:52:39;;;;;;;9.77;7.20;;;;;;;12.68;95.62;100604.59;681282;28;1353;-50
2021/08/04 00:53:00;;;;;;;9.80;7.60;;;;;;;12.67;95.24;100613.34;684489;28;1252;-49
2021/08/04 00:53:23;;;;;;;8.20;7.20;;;;;;;12.68;95.47;100608.09;681314;28;1915;-53
2021/08/04 00:53:44;;;;;;;9.18;7.57;;;;;;;12.67;95.46;100608.97;681629;28;2199;-48
2021/08/04 00:54:06;;;;;;;9.10;7.55;;;;;;;12.68;95.73;100601.97;681645;28;1810;-57
2021/08/04 00:54:27;;;;;;;9.80;7.85;;;;;;;12.68;95.83;100609.84;683852;28;4744;-53
2021/08/04 00:54:47;;;;;;;9.07;7.88;;;;;;;12.70;95.51;100610.69;686035;28;1682;-52
2021/08/04 00:55:08;;;;;;;9.23;7.67;;;;;;;12.70;95.18;100605.47;685321;28;4693;-50
2021/08/04 00:55:29;;;;;;;8.57;7.55;;;;;;;12.70;95.64;100608.06;684096;28;1598;-51
2021/08/04 00:55:51;;;;;;;8.57;7.33;;;;;;;12.70;95.63;100611.56;684609;28;1726;-54
2021/08/04 00:56:11;;;;;;;9.05;7.30;;;;;;;12.70;95.53;100602.84;683940;28;1488;-48
2021/08/04 00:56:33;;;;;;;8.23;7.07;;;;;;;12.71;95.64;100609.78;682212;28;1518;-49
2021/08/04 00:56:53;;;;;;;7.90;6.80;;;;;;;12.71;95.36;100609.78;682639;28;1990;-53
2021/08/04 00:57:14;;;;;;;7.82;6.65;;;;;;;12.71;95.22;100608.06;684018;28;4659;-51
2021/08/04 00:57:34;;;;;;;8.50;7.00;;;;;;;12.70;95.16;100608.94;684316;28;4492;-48
2021/08/04 00:57:55;;;;;;;8.65;7.38;;;;;;;12.70;95.15;100610.69;684519;28;1963;-51
2021/08/04 00:58:18;;;;;;;9.18;7.55;;;;;;;12.68;95.36;100608.09;687130;28;1472;-49
2021/08/04 00:58:43;;;;;;;8.05;7.22;;;;;;;12.71;94.96;100615.03;689117;28;1525;-49
2021/08/04 00:59:06;;;;;;;7.78;6.97;;;;;;;12.72;95.17;100616.78;686363;28;1755;-51
2021/08/04 00:59:27;;;;;;;7.38;6.57;;;;;;;12.72;95.46;100611.53;684955;28;1283;-50
2021/08/04 00:59:47;;;;;;;8.98;6.80;;;;;;;12.72;95.29;100611.53;685401;28;1595;-51
2021/08/04 01:00:09;;;;;;;9.83;6.87;;;;;;;12.74;95.09;100609.78;686581;28;1378;-49
2021/08/04 01:00:30;;;;;;;7.85;7.00;;;;;;;12.72;94.95;100614.16;685153;28;5951;-49
2021/08/04 01:00:59;;;;;;;7.85;6.70;;;;;;;12.70;95.26;100608.06;687860;28;1632;-50
2021/08/04 01:01:27;;;;;;;8.32;6.90;;;;;;;12.69;95.10;100614.22;684091;28;3788;-50
2021/08/04 01:02:17;;;;;;;10.50;7.40;;;;;;;12.68;95.07;100615.09;686972;28;1731;-51
2021/08/04 01:02:42;;;;;;;9.77;6.82;;;;;;;12.65;95.02;100620.38;682708;28;1907;-53
2021/08/04 01:03:07;;;;;;;9.88;7.13;;;;;;;12.64;95.43;100613.41;684845;28;2116;-50
2021/08/04 01:03:33;;;;;;;7.60;6.60;;;;;;;12.66;95.62;100612.50;688947;28;4338;-49
2021/08/04 01:04:30;;;;;;;8.57;7.22;;;;;;;12.69;95.08;100617.69;685823;28;4429;-53
2021/08/04 01:04:56;;;;;;;7.93;6.85;;;;;;;12.70;95.25;100616.81;682471;28;1611;-51
2021/08/04 01:05:25;;;;;;;8.77;6.90;;;;;;;12.70;94.74;100621.19;681703;28;1634;-49
2021/08/04 01:05:55;;;;;;;9.45;6.95;;;;;;;12.68;95.13;100620.31;682949;28;1634;-50
2021/08/04 01:06:59;;;;;;;10.85;7.18;;;;;;;12.66;95.15;100615.13;681048;28;4566;-53
2021/08/04 01:07:23;;;;;;;9.35;7.00;;;;;;;12.66;95.55;100616.88;668269;29;1679;-49
2021/08/04 01:07:47;;;;;;;10.75;7.28;;;;;;;12.63;95.76;100615.16;676680;29;4322;-53
2021/08/04 01:08:14;;;;;;;9.18;7.10;;;;;;;12.60;95.69;100623.06;678451;29;4081;-53
2021/08/04 01:08:39;;;;;;;9.80;7.10;;;;;;;12.56;95.74;100627.47;687426;28;1631;-50
2021/08/04 01:08:59;;;;;;;8.65;6.97;;;;;;;12.51;95.84;100618.81;687541;28;1821;-50
2021/08/04 01:09:23;;;;;;;8.90;6.90;;;;;;;12.51;96.23;100617.94;682939;28;5540;-51
2021/08/04 01:09:54;;;;;;;9.23;7.35;;;;;;;12.48;96.25;100618.00;685622;28;1727;-49
2021/08/04 01:10:25;;;;;;;11.20;7.78;;;;;;;12.46;96.47;100611.88;685582;28;1209;-49
2021/08/04 01:10:52;;;;;;;10.00;7.63;;;;;;;12.45;97.00;100618.91;689066;28;1912;-51
2021/08/04 01:11:13;;;;;;;9.27;7.50;;;;;;;12.43;96.66;100616.31;690048;28;1726;-50
2021/08/04 01:11:37;;;;;;;9.70;7.53;;;;;;;12.43;96.72;100618.03;691265;28;4627;-50
2021/08/04 01:12:04;;;;;;;9.00;7.53;;;;;;;12.42;96.35;100621.56;689190;28;3978;-50
2021/08/04 01:12:34;;;;;;;9.35;7.30;;;;;;;12.44;96.59;100614.53;691166;28;5417;-52
2021/08/04 01:13:00;;;;;;;10.43;7.18;;;;;;;12.45;96.47;100613.66;693200;28;2144;-49
2021/08/04 01:13:28;;;;;;;10.38;7.75;;;;;;;12.44;96.48;100618.00;690742;28;1981;-49
2021/08/04 01:13:53;;;;;;;10.75;7.95;;;;;;;12.44;96.88;100622.41;691760;28;2715;-49
2021/08/04 01:14:19;;;;;;;9.02;7.60;;;;;;;12.46;96.81;100615.41;688860;28;1433;-51
2021/08/04 01:14:42;;;;;;;8.60;7.70;;;;;;;12.47;96.26;100621.50;685983;28;1925;-50
2021/08/04 01:15:05;;;;;;;9.43;7.20;;;;;;;12.51;96.09;100623.19;683630;28;1371;-52
2021/08/04 01:15:31;;;;;;;7.78;6.97;;;;;;;12.53;95.99;100617.03;685626;28;4423;-50
2021/08/04 01:16:02;;;;;;;8.52;6.80;;;;;;;12.56;95.83;100616.13;683572;28;4222;-51
2021/08/04 01:16:28;;;;;;;10.20;7.28;;;;;;;12.58;95.92;100615.19;684518;28;1768;-50
2021/08/04 01:16:51;;;;;;;9.27;7.05;;;;;;;12.60;95.85;100618.69;686823;28;1514;-51
2021/08/04 01:17:14;;;;;;;9.27;7.55;;;;;;;12.62;96.16;100621.28;689050;28;1732;-50
2021/08/04 01:17:38;;;;;;;11.50;7.10;;;;;;;12.59;96.03;100616.94;689379;28;1709;-50
2021/08/04 01:18:00;;;;;;;10.77;7.03;;;;;;;12.62;95.64;100618.66;691029;28;1256;-52
2021/08/04 01:18:25;;;;;;;7.55;6.20;;;;;;;12.64;95.36;100618.63;689561;28;4679;-49
2021/08/04 01:18:53;;;;;;;8.90;6.30;;;;;;;12.64;95.21;100613.41;689668;28;1772;-53
2021/08/04 01:19:41;;;;;;;7.57;6.15;;;;;;;12.68;94.37;100620.31;687758;28;1427;-49
2021/08/04 01:20:14;;;;;;;8.55;6.00;;;;;;;12.69;94.41;100614.22;684918;28;1690;-50
2021/08/04 01:20:35;;;;;;;7.80;6.03;;;;;;;12.69;94.24;100614.22;690386;28;1542;-49
2021/08/04 01:20:56;;;;;;;6.88;6.18;;;;;;;12.69;94.50;100616.81;691601;28;2004;-49
2021/08/04 01:21:28;;;;;;;7.97;6.20;;;;;;;12.70;94.45;100618.56;689913;28;4878;-49
2021/08/04 01:22:02;;;;;;;8.43;6.47;;;;;;;12.68;94.40;100617.72;689137;28;2626;-49
2021/08/04 01:22:47;;;;;;;8.45;6.57;;;;;;;12.65;94.66;100617.75;687929;28;1501;-50
2021/08/04 01:23:16;;;;;;;7.97;6.63;;;;;;;12.66;94.61;100615.13;689214;28;1633;-49
2021/08/04 01:23:50;;;;;;;7.82;6.15;;;;;;;12.69;94.20;100614.22;688159;28;1778;-51
2021/08/04 01:24:19;;;;;;;7.00;6.03;;;;;;;12.68;94.88;100621.22;687341;28;4495;-52
2021/08/04 01:24:53;;;;;;;8.52;6.63;;;;;;;12.59;94.95;100614.31;688390;28;1633;-53
2021/08/04 01:25:17;;;;;;;9.43;6.53;;;;;;;12.56;95.34;100624.00;688554;28;4170;-49
2021/08/04 01:25:52;;;;;;;8.48;6.45;;;;;;;12.53;95.62;100617.03;688893;28;1462;-54
2021/08/04 01:26:23;;;;;;;9.10;6.75;;;;;;;12.53;95.33;100617.03;691198;28;1638;-51
2021/08/04 01:26:45;;;;;;;7.55;6.32;;;;;;;12.57;95.08;100616.13;688036;28;1428;-53
2021/08/04 01:27:11;;;;;;;8.57;6.45;;;;;;;12.56;95.08;100617.00;687447;28;4142;-50
2021/08/04 01:27:33;;;;;;;8.05;6.65;;;;;;;12.55;95.25;100615.25;687906;28;5067;-52
2021/08/04 01:28:20;;;;;;;8.80;6.78;;;;;;;12.48;95.73;100618.84;685928;28;1828;-50
2021/08/04 01:28:47;;;;;;;9.50;7.20;;;;;;;12.44;95.73;100620.63;685849;28;1772;-51
2021/08/04 01:29:12;;;;;;;8.55;7.22;;;;;;;12.44;95.90;100622.41;685441;28;2250;-52
2021/08/04 01:29:33;;;;;;;13.23;7.40;;;;;;;12.42;96.32;100618.94;686672;28;1766;-52
2021/08/04 01:29:55;;;;;;;10.35;7.53;;;;;;;12.43;96.44;100612.78;686789;28;1637;-51
2021/08/04 01:30:17;;;;;;;8.88;7.25;;;;;;;12.43;96.27;100620.66;682766;28;4461;-50
2021/08/04 01:30:39;;;;;;;8.52;7.38;;;;;;;12.43;96.35;100618.94;686190;28;3796;-50
2021/08/04 01:31:05;;;;;;;11.27;7.65;;;;;;;12.45;96.24;100618.91;684640;28;2170;-52
2021/08/04 01:31:33;;;;;;;9.32;7.15;;;;;;;12.44;96.15;100615.38;687085;28;1567;-49
2021/08/04 01:31:58;;;;;;;9.05;7.60;;;;;;;12.43;96.35;100620.66;689256;28;1372;-50
2021/08/04 01:32:20;;;;;;;9.32;7.47;;;;;;;12.42;96.47;100617.19;688582;28;1731;-52
2021/08/04 01:32:41;;;;;;;9.93;7.45;;;;;;;12.41;96.40;100617.22;686172;28;3640;-52
2021/08/04 01:33:03;;;;;;;9.05;7.63;;;;;;;12.40;96.28;100618.94;685929;28;1715;-50
2021/08/04 01:33:25;;;;;;;10.00;7.85;;;;;;;12.40;96.26;100612.84;685199;28;4630;-50
2021/08/04 01:33:49;;;;;;;10.98;7.60;;;;;;;12.41;96.44;100615.44;683121;28;1564;-50
2021/08/04 01:34:11;;;;;;;8.85;7.47;;;;;;;12.41;96.62;100611.97;682170;28;4425;-51
2021/08/04 01:34:35;;;;;;;9.60;7.60;;;;;;;12.43;96.23;100611.06;685695;28;1623;-49
2021/08/04 01:34:56;;;;;;;9.23;7.75;;;;;;;12.44;96.20;100612.78;685329;28;1769;-49
2021/08/04 01:35:18;;;;;;;9.40;7.63;;;;;;;12.44;96.05;100617.16;683964;28;1944;-51
2021/08/04 01:35:40;;;;;;;9.93;7.40;;;;;;;12.45;95.92;100611.03;686673;28;1336;-52
2021/08/04 01:36:00;;;;;;;8.60;7.20;;;;;;;12.48;96.05;100612.75;687268;28;2213;-51
2021/08/04 01:36:24;;;;;;;8.77;7.50;;;;;;;12.49;95.66;100614.47;687732;28;4508;-50
2021/08/04 01:36:46;;;;;;;9.93;7.15;;;;;;;12.50;95.95;100616.22;687074;28;1857;-54
2021/08/04 01:37:08;;;;;;;8.77;7.60;;;;;;;12.49;95.92;100606.59;689395;28;1564;-49
2021/08/04 01:37:30;;;;;;;8.98;7.63;;;;;;;12.49;95.73;100615.34;687580;28;1626;-51
2021/08/04 01:37:51;;;;;;;8.32;7.13;;;;;;;12.47;95.94;100606.63;689164;28;3975;-53
2021/08/04 01:38:16;;;;;;;8.80;7.63;;;;;;;12.47;95.91;100611.88;685581;28;4663;-49
2021/08/04 01:38:37;;;;;;;8.60;7.00;;;;;;;12.48;95.81;100613.59;688443;28;1686;-51
2021/08/04 01:39:01;;;;;;;8.43;6.50;;;;;;;12.51;95.76;100607.47;689121;28;1849;-53
2021/08/04 01:39:22;;;;;;;8.32;6.43;;;;;;;12.53;95.33;100610.91;689960;28;4644;-52
2021/08/04 01:39:44;;;;;;;7.80;6.00;;;;;;;12.56;95.12;100613.53;688081;28;1411;-49
2021/08/04 01:40:07;;;;;;;7.45;6.00;;;;;;;12.57;95.05;100603.00;685220;28;2125;-52
2021/08/04 01:40:28;;;;;;;7.50;6.00;;;;;;;12.59;94.63;100609.09;686848;28;1519;-50
2021/08/04 01:40:55;;;;;;;7.03;5.80;;;;;;;12.62;94.81;100604.69;683972;28;1496;-50
2021/08/04 01:41:17;;;;;;;7.75;6.22;;;;;;;12.64;94.36;100608.16;682304;28;1541;-50
2021/08/04 01:41:40;;;;;;;7.55;6.03;;;;;;;12.66;94.48;100606.38;685958;28;3276;-50
2021/08/04 01:42:03;;;;;;;7.80;5.85;;;;;;;12.68;94.05;100608.09;683986;28;4396;-50
2021/08/04 01:42:24;;;;;;;9.18;6.18;;;;;;;12.69;94.45;100608.97;687149;28;4418;-53
2021/08/04 01:42:45;;;;;;;7.05;6.22;;;;;;;12.64;94.75;100608.16;690474;28;1486;-52
2021/08/04 01:43:08;;;;;;;6.95;6.25;;;;;;;12.61;95.30;100606.44;689947;28;1578;-49
2021/08/04 01:43:30;;;;;;;7.90;6.60;;;;;;;12.59;95.48;100610.84;688009;28;1558;-53
2021/08/04 01:43:52;;;;;;;8.02;6.70;;;;;;;12.58;95.08;100609.09;684872;28;1860;-51
2021/08/04 01:44:14;;;;;;;9.35;6.80;;;;;;;12.58;95.26;100614.34;685654;28;1546;-50
2021/08/04 01:44:37;;;;;;;8.98;6.70;;;;;;;12.56;95.20;100605.66;682984;28;1819;-51
2021/08/04 01:45:00;;;;;;;9.70;6.78;;;;;;;12.56;95.43;100605.66;684720;28;2499;-49
2021/08/04 01:45:21;;;;;;;9.02;6.70;;;;;;;12.56;95.29;100606.50;686481;28;4653;-52
2021/08/04 01:45:44;;;;;;;9.23;6.68;;;;;;;12.57;95.11;100608.25;691797;28;2962;-50
2021/08/04 01:46:06;;;;;;;7.60;5.95;;;;;;;12.59;95.27;100611.69;694388;28;3593;-53
2021/08/04 01:46:28;;;;;;;6.90;6.20;;;;;;;12.58;94.77;100607.34;694833;28;1238;-51
2021/08/04 01:46:49;;;;;;;9.10;6.55;;;;;;;12.59;94.41;100605.59;694640;28;1721;-51
2021/08/04 01:47:11;;;;;;;11.02;7.10;;;;;;;12.60;94.57;100612.59;690516;28;1530;-49
2021/08/04 01:47:32;;;;;;;7.13;6.40;;;;;;;12.60;94.44;100612.59;692015;28;1576;-50
2021/08/04 01:47:54;;;;;;;6.72;5.90;;;;;;;12.60;94.23;100609.97;688848;28;1757;-52
2021/08/04 01:48:15;;;;;;;8.35;6.40;;;;;;;12.58;94.69;100609.97;687870;28;4565;-49
2021/08/04 01:48:38;;;;;;;9.60;6.78;;;;;;;12.55;95.15;100602.16;680853;28;3553;-53
2021/08/04 01:49:01;;;;;;;8.55;6.82;;;;;;;12.55;94.79;100604.75;681946;28;4112;-49